createdAt,value
2023-02-28T00:00:37.051Z,46.89
2023-02-28T00:01:37.052Z,46.73
2023-02-28T00:02:37.013Z,46.41
2023-02-28T00:03:37.089Z,46.57
2023-02-28T00:04:37.031Z,46.57
2023-02-28T00:05:36.993Z,46.25
2023-02-28T00:06:36.997Z,46.41
2023-02-28T00:07:36.984Z,46.57
2023-02-28T00:08:36.991Z,46.73
2023-02-28T00:09:36.998Z,46.73
2023-02-28T00:10:36.972Z,46.57
2023-02-28T00:11:36.960Z,45.76
2023-02-28T00:12:36.946Z,46.89
2023-02-28T00:13:36.946Z,46.41
2023-02-28T00:14:36.944Z,46.41
2023-02-28T00:15:36.964Z,46.41
2023-02-28T00:16:36.951Z,46.41
2023-02-28T00:17:36.918Z,46.41
2023-02-28T00:18:36.906Z,46.41
2023-02-28T00:19:36.904Z,46.73
2023-02-28T00:20:36.907Z,46.73
2023-02-28T00:21:36.903Z,46.57
2023-02-28T00:22:36.887Z,46.57
2023-02-28T00:23:36.924Z,46.41
2023-02-28T00:24:36.874Z,46.25
2023-02-28T00:25:36.869Z,46.41
2023-02-28T00:26:36.873Z,46.25
2023-02-28T00:27:36.837Z,46.41
2023-02-28T00:28:36.849Z,46.89
2023-02-28T00:29:36.833Z,46.25
2023-02-28T00:30:36.860Z,47.05
2023-02-28T00:31:36.816Z,47.53
2023-02-28T00:32:36.821Z,46.08
2023-02-28T00:33:36.808Z,46.73
2023-02-28T00:34:36.804Z,47.21
2023-02-28T00:35:36.837Z,45.92
2023-02-28T00:36:36.824Z,46.25
2023-02-28T00:37:36.774Z,46.41
2023-02-28T00:38:36.796Z,46.41
2023-02-28T00:39:36.758Z,45.60
2023-02-28T00:40:36.767Z,46.08
2023-02-28T00:41:36.765Z,46.57
2023-02-28T00:42:36.734Z,46.25
2023-02-28T00:43:36.767Z,45.92
2023-02-28T00:44:36.727Z,46.25
2023-02-28T00:45:36.711Z,45.44
2023-02-28T00:46:36.772Z,46.08
2023-02-28T00:47:36.721Z,46.41
2023-02-28T00:48:36.697Z,46.25
2023-02-28T00:49:36.698Z,46.08
2023-02-28T00:50:36.702Z,45.76
2023-02-28T00:51:36.685Z,45.92
2023-02-28T00:52:36.680Z,45.92
2023-02-28T00:53:36.678Z,45.76
2023-02-28T00:54:36.674Z,46.08
2023-02-28T00:55:36.659Z,46.25
2023-02-28T00:56:36.651Z,45.92
2023-02-28T00:57:36.656Z,45.60
2023-02-28T00:58:36.717Z,46.73
2023-02-28T00:59:36.661Z,46.57
2023-02-28T01:00:36.630Z,46.57
2023-02-28T01:01:36.652Z,46.25
2023-02-28T01:02:36.612Z,46.08
2023-02-28T01:03:36.609Z,45.92
2023-02-28T01:04:36.655Z,46.08
2023-02-28T01:05:36.600Z,46.25
2023-02-28T01:06:36.575Z,46.25
2023-02-28T01:07:36.575Z,46.25
2023-02-28T01:08:36.563Z,46.25
2023-02-28T01:09:36.574Z,45.60
2023-02-28T01:10:36.567Z,46.57
2023-02-28T01:11:36.544Z,46.73
2023-02-28T01:12:36.541Z,46.73
2023-02-28T01:13:36.522Z,45.92
2023-02-28T01:14:36.530Z,46.25
2023-02-28T01:15:36.580Z,46.57
2023-02-28T01:16:36.515Z,46.41
2023-02-28T01:17:36.508Z,46.57
2023-02-28T01:18:36.506Z,46.25
2023-02-28T01:19:36.501Z,46.57
2023-02-28T01:20:36.504Z,46.41
2023-02-28T01:21:36.480Z,46.89
2023-02-28T01:22:36.470Z,46.73
2023-02-28T01:23:36.468Z,46.41
2023-02-28T01:24:36.467Z,47.53
2023-02-28T01:25:36.507Z,46.89
2023-02-28T01:26:36.444Z,46.89
2023-02-28T01:27:36.448Z,47.37
2023-02-28T01:28:36.436Z,46.41
2023-02-28T01:29:36.434Z,46.57
2023-02-28T01:30:36.431Z,45.92
2023-02-28T01:31:36.439Z,45.92
2023-02-28T01:32:36.400Z,46.41
2023-02-28T01:33:36.400Z,46.41
2023-02-28T01:34:36.412Z,46.89
2023-02-28T01:35:36.432Z,49.31
2023-02-28T01:36:36.380Z,47.37
2023-02-28T01:37:36.367Z,46.41
2023-02-28T01:38:36.363Z,46.89
2023-02-28T01:39:36.405Z,47.21
2023-02-28T01:40:36.357Z,46.57
2023-02-28T01:41:36.354Z,46.73
2023-02-28T01:42:36.362Z,49.47
2023-02-28T01:43:36.330Z,47.05
2023-02-28T01:44:36.339Z,46.25
2023-02-28T01:45:36.318Z,46.73
2023-02-28T01:46:36.368Z,46.89
2023-02-28T01:47:36.301Z,46.41
2023-02-28T01:48:36.290Z,46.89
2023-02-28T01:49:36.291Z,46.57
2023-02-28T01:50:36.310Z,46.57
2023-02-28T01:51:36.261Z,45.76
2023-02-28T01:52:36.260Z,46.57
2023-02-28T01:53:36.253Z,46.25
2023-02-28T01:54:36.250Z,46.57
2023-02-28T01:55:36.276Z,47.21
2023-02-28T01:56:36.234Z,46.73
2023-02-28T01:57:36.238Z,47.05
2023-02-28T01:58:36.225Z,46.41
2023-02-28T01:59:36.227Z,46.73
2023-02-28T02:00:36.205Z,47.21
2023-02-28T02:01:36.223Z,48.50
2023-02-28T02:02:36.269Z,46.25
2023-02-28T02:03:36.194Z,47.05
2023-02-28T02:04:36.188Z,48.34
2023-02-28T02:05:36.181Z,50.11
2023-02-28T02:06:36.185Z,47.37
2023-02-28T02:07:36.163Z,46.73
2023-02-28T02:08:36.161Z,46.73
2023-02-28T02:09:36.163Z,46.57
2023-02-28T02:10:36.147Z,47.05
2023-02-28T02:11:36.173Z,47.21
2023-02-28T02:12:36.132Z,48.02
2023-02-28T02:13:36.134Z,47.86
2023-02-28T02:14:36.115Z,48.02
2023-02-28T02:15:36.112Z,47.37
2023-02-28T02:16:37.130Z,46.89
2023-02-28T02:17:36.136Z,46.73
2023-02-28T02:18:36.128Z,46.57
2023-02-28T02:19:36.111Z,46.73
2023-02-28T02:20:36.083Z,47.37
2023-02-28T02:21:36.886Z,47.53
2023-02-28T02:22:37.067Z,47.21
2023-02-28T02:23:36.081Z,47.05
2023-02-28T02:24:36.055Z,47.37
2023-02-28T02:25:36.044Z,46.25
2023-02-28T02:26:36.039Z,46.25
2023-02-28T02:27:36.032Z,46.73
2023-02-28T02:28:36.038Z,47.21
2023-02-28T02:29:36.056Z,46.89
2023-02-28T02:30:36.008Z,46.57
2023-02-28T02:31:37.064Z,47.37
2023-02-28T02:32:36.023Z,47.86
2023-02-28T02:33:35.988Z,48.66
2023-02-28T02:34:35.991Z,47.70
2023-02-28T02:35:36.041Z,46.89
2023-02-28T02:36:35.989Z,47.70
2023-02-28T02:37:35.973Z,46.41
2023-02-28T02:38:35.972Z,46.57
2023-02-28T02:39:35.951Z,46.57
2023-02-28T02:40:35.963Z,48.02
2023-02-28T02:41:35.939Z,49.15
2023-02-28T02:42:35.948Z,47.70
2023-02-28T02:43:35.935Z,48.18
2023-02-28T02:44:35.928Z,46.73
2023-02-28T02:45:35.933Z,47.21
2023-02-28T02:46:35.998Z,46.73
2023-02-28T02:47:35.931Z,46.73
2023-02-28T02:48:35.917Z,46.41
2023-02-28T02:49:35.891Z,46.41
2023-02-28T02:50:35.888Z,47.05
2023-02-28T02:51:35.957Z,47.37
2023-02-28T02:52:35.877Z,47.37
2023-02-28T02:53:35.866Z,48.18
2023-02-28T02:54:36.860Z,47.05
2023-02-28T02:55:35.851Z,46.73
2023-02-28T02:56:35.869Z,46.73
2023-02-28T02:57:35.843Z,46.89
2023-02-28T02:58:35.823Z,48.18
2023-02-28T02:59:35.824Z,46.73
2023-02-28T03:00:35.863Z,46.89
2023-02-28T03:01:35.835Z,46.73
2023-02-28T03:02:35.807Z,48.02
2023-02-28T03:03:35.867Z,46.89
2023-02-28T03:04:35.796Z,47.21
2023-02-28T03:05:35.784Z,46.89
2023-02-28T03:06:35.788Z,46.41
2023-02-28T03:07:35.907Z,46.73
2023-02-28T03:08:35.760Z,46.41
2023-02-28T03:09:35.760Z,46.08
2023-02-28T03:10:35.755Z,46.41
2023-02-28T03:11:35.747Z,47.86
2023-02-28T03:12:35.757Z,47.70
2023-02-28T03:13:35.728Z,46.57
2023-02-28T03:14:35.716Z,46.25
2023-02-28T03:15:35.706Z,46.57
2023-02-28T03:16:36.881Z,46.08
2023-02-28T03:17:35.696Z,48.18
2023-02-28T03:18:35.733Z,50.76
2023-02-28T03:19:35.712Z,49.63
2023-02-28T03:20:35.685Z,46.73
2023-02-28T03:21:35.680Z,46.57
2023-02-28T03:22:35.663Z,47.37
2023-02-28T03:23:35.649Z,47.86
2023-02-28T03:24:35.660Z,47.05
2023-02-28T03:25:35.644Z,48.34
2023-02-28T03:26:35.684Z,48.02
2023-02-28T03:27:35.640Z,49.15
2023-02-28T03:28:35.631Z,47.21
2023-02-28T03:29:35.623Z,47.70
2023-02-28T03:30:35.620Z,46.89
2023-02-28T03:31:35.669Z,47.53
2023-02-28T03:32:35.635Z,46.41
2023-02-28T03:33:35.603Z,47.37
2023-02-28T03:34:35.594Z,47.37
2023-02-28T03:35:35.628Z,47.05
2023-02-28T03:36:35.575Z,47.53
2023-02-28T03:37:35.565Z,47.37
2023-02-28T03:38:35.563Z,47.70
2023-02-28T03:39:35.567Z,48.82
2023-02-28T03:40:35.551Z,47.37
2023-02-28T03:41:35.555Z,46.89
2023-02-28T03:42:35.534Z,47.86
2023-02-28T03:43:35.534Z,47.37
2023-02-28T03:44:35.582Z,49.15
2023-02-28T03:45:35.550Z,49.47
2023-02-28T03:46:36.519Z,47.53
2023-02-28T03:47:35.519Z,47.37
2023-02-28T03:48:35.504Z,48.34
2023-02-28T03:49:35.484Z,48.50
2023-02-28T03:50:35.483Z,47.70
2023-02-28T03:51:35.501Z,47.86
2023-02-28T03:52:35.468Z,47.37
2023-02-28T03:53:35.470Z,47.86
2023-02-28T03:54:35.453Z,50.43
2023-02-28T03:55:35.461Z,48.50
2023-02-28T03:56:35.456Z,48.34
2023-02-28T03:57:35.435Z,48.18
2023-02-28T03:58:35.439Z,47.37
2023-02-28T03:59:35.426Z,48.02
2023-02-28T04:00:35.423Z,47.21
2023-02-28T04:01:35.460Z,47.53
2023-02-28T04:02:35.432Z,49.47
2023-02-28T04:03:35.389Z,50.11
2023-02-28T04:04:35.392Z,47.86
2023-02-28T04:05:35.380Z,47.37
2023-02-28T04:06:35.397Z,47.70
2023-02-28T04:07:35.395Z,48.82
2023-02-28T04:08:35.362Z,47.70
2023-02-28T04:09:35.352Z,47.86
2023-02-28T04:10:35.338Z,47.70
2023-02-28T04:11:35.341Z,48.50
2023-02-28T04:12:35.336Z,48.82
2023-02-28T04:13:35.354Z,48.34
2023-02-28T04:14:35.317Z,49.31
2023-02-28T04:15:35.369Z,50.11
2023-02-28T04:16:35.927Z,48.82
2023-02-28T04:17:36.304Z,49.63
2023-02-28T04:18:35.299Z,48.82
2023-02-28T04:19:35.289Z,50.11
2023-02-28T04:20:35.284Z,49.79
2023-02-28T04:21:35.272Z,49.63
2023-02-28T04:22:35.269Z,49.15
2023-02-28T04:23:35.263Z,48.02
2023-02-28T04:24:35.254Z,47.53
2023-02-28T04:25:35.276Z,50.60
2023-02-28T04:26:35.269Z,50.11
2023-02-28T04:27:35.245Z,49.31
2023-02-28T04:28:35.221Z,49.95
2023-02-28T04:29:35.236Z,49.95
2023-02-28T04:30:35.234Z,48.50
2023-02-28T04:31:35.284Z,48.66
2023-02-28T04:32:35.245Z,47.37
2023-02-28T04:33:35.196Z,48.66
2023-02-28T04:34:35.184Z,49.95
2023-02-28T04:35:35.230Z,49.31
2023-02-28T04:36:35.183Z,48.66
2023-02-28T04:37:35.174Z,51.08
2023-02-28T04:38:35.175Z,49.15
2023-02-28T04:39:35.159Z,50.11
2023-02-28T04:40:35.179Z,49.63
2023-02-28T04:41:35.468Z,50.76
2023-02-28T04:42:35.130Z,48.66
2023-02-28T04:43:35.140Z,49.47
2023-02-28T04:44:35.114Z,50.92
2023-02-28T04:45:35.156Z,50.11
2023-02-28T04:46:36.261Z,50.76
2023-02-28T04:47:35.109Z,50.43
2023-02-28T04:48:35.099Z,50.11
2023-02-28T04:49:35.091Z,49.15
2023-02-28T04:50:35.080Z,49.47
2023-02-28T04:51:35.084Z,47.86
2023-02-28T04:52:35.079Z,47.86
2023-02-28T04:53:35.073Z,49.79
2023-02-28T04:54:35.062Z,49.79
2023-02-28T04:55:35.053Z,49.15
2023-02-28T04:56:35.054Z,49.47
2023-02-28T04:57:35.061Z,51.24
2023-02-28T04:58:35.057Z,50.76
2023-02-28T04:59:35.020Z,48.98
2023-02-28T05:00:35.009Z,49.15
2023-02-28T05:01:35.006Z,48.18
2023-02-28T05:02:35.143Z,49.15
2023-02-28T05:03:34.997Z,49.15
2023-02-28T05:04:35.011Z,49.79
2023-02-28T05:05:34.984Z,52.05
2023-02-28T05:06:34.969Z,51.08
2023-02-28T05:07:34.975Z,48.82
2023-02-28T05:08:34.962Z,49.95
2023-02-28T05:09:34.981Z,49.79
2023-02-28T05:10:34.929Z,51.72
2023-02-28T05:11:34.940Z,50.60
2023-02-28T05:12:34.931Z,50.43
2023-02-28T05:13:34.925Z,50.11
2023-02-28T05:14:34.923Z,51.56
2023-02-28T05:15:35.815Z,52.05
2023-02-28T05:16:35.987Z,51.24
2023-02-28T05:17:34.898Z,50.76
2023-02-28T05:18:34.937Z,49.15
2023-02-28T05:19:34.907Z,50.27
2023-02-28T05:20:34.876Z,50.92
2023-02-28T05:21:34.872Z,50.43
2023-02-28T05:22:34.856Z,50.43
2023-02-28T05:23:34.851Z,51.24
2023-02-28T05:24:34.880Z,50.27
2023-02-28T05:25:34.835Z,50.27
2023-02-28T05:26:34.841Z,51.88
2023-02-28T05:27:34.840Z,49.63
2023-02-28T05:28:34.820Z,52.69
2023-02-28T05:29:34.827Z,51.72
2023-02-28T05:30:34.812Z,50.60
2023-02-28T05:31:34.858Z,51.72
2023-02-28T05:32:34.844Z,50.92
2023-02-28T05:33:34.791Z,51.24
2023-02-28T05:34:34.785Z,51.24
2023-02-28T05:35:34.870Z,51.72
2023-02-28T05:36:34.779Z,52.53
2023-02-28T05:37:34.870Z,52.05
2023-02-28T05:38:35.921Z,52.37
2023-02-28T05:39:34.741Z,52.37
2023-02-28T05:40:34.762Z,54.46
2023-02-28T05:41:34.725Z,52.69
2023-02-28T05:42:34.730Z,51.72
2023-02-28T05:43:34.728Z,51.40
2023-02-28T05:44:34.714Z,51.72
2023-02-28T05:45:34.769Z,52.53
2023-02-28T05:46:34.722Z,52.37
2023-02-28T05:47:34.697Z,51.72
2023-02-28T05:48:34.723Z,52.21
2023-02-28T05:49:34.721Z,53.17
2023-02-28T05:50:34.702Z,52.53
2023-02-28T05:51:34.682Z,53.01
2023-02-28T05:52:34.684Z,52.21
2023-02-28T05:53:34.661Z,52.85
2023-02-28T05:54:34.652Z,50.92
2023-02-28T05:55:34.665Z,51.24
2023-02-28T05:56:34.678Z,50.60
2023-02-28T05:57:34.643Z,51.24
2023-02-28T05:58:34.633Z,50.76
2023-02-28T05:59:34.636Z,51.56
2023-02-28T06:00:34.656Z,51.40
2023-02-28T06:01:34.625Z,51.72
2023-02-28T06:02:34.644Z,52.37
2023-02-28T06:03:34.642Z,51.08
2023-02-28T06:04:34.602Z,52.05
2023-02-28T06:05:34.587Z,51.88
2023-02-28T06:06:36.725Z,51.88
2023-02-28T06:07:35.610Z,53.17
2023-02-28T06:08:34.564Z,52.21
2023-02-28T06:09:35.554Z,52.85
2023-02-28T06:10:34.566Z,51.88
2023-02-28T06:11:34.581Z,52.85
2023-02-28T06:12:34.547Z,50.27
2023-02-28T06:13:34.645Z,52.05
2023-02-28T06:14:34.548Z,53.17
2023-02-28T06:15:34.550Z,51.56
2023-02-28T06:16:34.552Z,51.88
2023-02-28T06:17:34.526Z,50.11
2023-02-28T06:18:34.506Z,51.56
2023-02-28T06:19:34.494Z,52.53
2023-02-28T06:20:34.492Z,51.72
2023-02-28T06:21:34.506Z,52.85
2023-02-28T06:22:34.492Z,52.85
2023-02-28T06:23:34.480Z,52.05
2023-02-28T06:24:34.468Z,52.21
2023-02-28T06:25:34.499Z,51.24
2023-02-28T06:26:34.474Z,51.24
2023-02-28T06:27:34.464Z,52.69
2023-02-28T06:28:34.458Z,52.53
2023-02-28T06:29:34.451Z,51.40
2023-02-28T06:30:34.436Z,51.88
2023-02-28T06:31:34.697Z,51.88
2023-02-28T06:32:34.417Z,50.92
2023-02-28T06:33:34.405Z,52.21
2023-02-28T06:34:34.422Z,52.05
2023-02-28T06:35:34.417Z,52.53
2023-02-28T06:36:34.396Z,51.88
2023-02-28T06:37:34.385Z,52.05
2023-02-28T06:38:34.378Z,53.50
2023-02-28T06:39:34.392Z,52.37
2023-02-28T06:40:34.370Z,51.72
2023-02-28T06:41:47.877Z,51.40
2023-02-28T06:42:36.365Z,52.53
2023-02-28T06:43:34.345Z,52.85
2023-02-28T06:44:34.359Z,53.82
2023-02-28T06:45:34.340Z,52.21
2023-02-28T06:46:34.409Z,52.05
2023-02-28T06:47:34.348Z,51.24
2023-02-28T06:48:35.974Z,51.56
2023-02-28T06:49:34.330Z,51.56
2023-02-28T06:50:34.301Z,51.24
2023-02-28T06:51:34.292Z,51.24
2023-02-28T06:52:34.284Z,50.92
2023-02-28T06:53:34.285Z,49.63
2023-02-28T06:54:34.295Z,52.21
2023-02-28T06:55:34.274Z,49.63
2023-02-28T06:56:34.259Z,49.15
2023-02-28T06:57:34.256Z,50.27
2023-02-28T06:58:34.268Z,51.24
2023-02-28T06:59:34.275Z,52.37
2023-02-28T07:00:34.269Z,51.88
2023-02-28T07:01:34.346Z,52.85
2023-02-28T07:02:34.230Z,51.24
2023-02-28T07:03:34.603Z,52.05
2023-02-28T07:04:35.237Z,53.17
2023-02-28T07:05:34.248Z,52.37
2023-02-28T07:06:34.234Z,52.37
2023-02-28T07:07:34.221Z,50.27
2023-02-28T07:08:34.173Z,52.85
2023-02-28T07:09:34.168Z,51.56
2023-02-28T07:10:34.216Z,53.33
2023-02-28T07:11:34.178Z,53.17
2023-02-28T07:12:34.154Z,50.11
2023-02-28T07:13:34.168Z,53.01
2023-02-28T07:14:34.157Z,53.33
2023-02-28T07:15:34.171Z,52.21
2023-02-28T07:16:34.153Z,52.53
2023-02-28T07:17:34.156Z,51.72
2023-02-28T07:18:34.109Z,51.24
2023-02-28T07:19:34.100Z,51.88
2023-02-28T07:20:34.099Z,53.33
2023-02-28T07:21:34.086Z,53.50
2023-02-28T07:22:34.094Z,52.05
2023-02-28T07:23:34.093Z,52.37
2023-02-28T07:24:34.063Z,51.56
2023-02-28T07:25:34.084Z,51.72
2023-02-28T07:26:34.065Z,54.46
2023-02-28T07:27:34.040Z,50.11
2023-02-28T07:28:34.037Z,50.11
2023-02-28T07:29:34.031Z,51.88
2023-02-28T07:30:34.020Z,50.43
2023-02-28T07:31:34.132Z,50.76
2023-02-28T07:32:34.008Z,52.53
2023-02-28T07:33:34.027Z,51.40
2023-02-28T07:34:33.990Z,49.63
2023-02-28T07:35:34.015Z,48.66
2023-02-28T07:36:33.977Z,48.82
2023-02-28T07:37:33.985Z,51.24
2023-02-28T07:38:33.992Z,48.66
2023-02-28T07:39:33.967Z,50.43
2023-02-28T07:40:33.972Z,49.47
2023-02-28T07:41:33.948Z,49.15
2023-02-28T07:42:33.948Z,47.70
2023-02-28T07:43:33.947Z,50.92
2023-02-28T07:44:33.928Z,49.63
2023-02-28T07:45:33.921Z,51.40
2023-02-28T07:46:34.198Z,50.11
2023-02-28T07:47:34.912Z,51.08
2023-02-28T07:48:33.905Z,51.40
2023-02-28T07:49:33.917Z,49.31
2023-02-28T07:50:33.887Z,50.43
2023-02-28T07:51:33.880Z,50.11
2023-02-28T07:52:33.872Z,52.37
2023-02-28T07:53:33.894Z,48.18
2023-02-28T07:54:33.887Z,48.02
2023-02-28T07:55:33.861Z,48.66
2023-02-28T07:56:33.851Z,48.34
2023-02-28T07:57:34.724Z,50.27
2023-02-28T07:58:33.839Z,48.18
2023-02-28T07:59:33.825Z,48.66
2023-02-28T08:00:33.863Z,49.47
2023-02-28T08:01:33.907Z,47.21
2023-02-28T08:02:33.813Z,48.98
2023-02-28T08:03:33.805Z,48.98
2023-02-28T08:04:33.846Z,48.66
2023-02-28T08:05:33.790Z,48.82
2023-02-28T08:06:33.793Z,47.86
2023-02-28T08:07:33.810Z,48.02
2023-02-28T08:08:33.798Z,47.70
2023-02-28T08:09:33.766Z,48.02
2023-02-28T08:10:33.755Z,49.15
2023-02-28T08:11:33.749Z,47.70
2023-02-28T08:12:33.749Z,45.28
2023-02-28T08:13:33.730Z,47.05
2023-02-28T08:14:33.732Z,46.57
2023-02-28T08:15:33.719Z,46.57
2023-02-28T08:16:33.767Z,51.56
2023-02-28T08:17:35.398Z,47.05
2023-02-28T08:18:34.719Z,46.73
2023-02-28T08:19:33.702Z,49.47
2023-02-28T08:20:33.684Z,46.41
2023-02-28T08:21:33.679Z,45.44
2023-02-28T08:22:33.667Z,45.60
2023-02-28T08:23:33.675Z,47.05
2023-02-28T08:24:33.656Z,45.28
2023-02-28T08:25:33.653Z,46.08
2023-02-28T08:26:33.644Z,43.67
2023-02-28T08:27:33.635Z,46.25
2023-02-28T08:28:33.641Z,45.60
2023-02-28T08:29:33.651Z,44.63
2023-02-28T08:30:33.632Z,43.67
2023-02-28T08:31:33.650Z,46.08
2023-02-28T08:32:33.689Z,45.60
2023-02-28T08:33:33.591Z,48.50
2023-02-28T08:34:33.589Z,44.31
2023-02-28T08:35:33.629Z,45.76
2023-02-28T08:36:33.591Z,44.63
2023-02-28T08:37:33.564Z,45.44
2023-02-28T08:38:33.575Z,45.44
2023-02-28T08:39:33.559Z,46.08
2023-02-28T08:40:33.540Z,43.83
2023-02-28T08:41:33.547Z,44.47
2023-02-28T08:42:33.532Z,43.34
2023-02-28T08:43:33.519Z,44.79
2023-02-28T08:44:33.534Z,43.34
2023-02-28T08:45:33.592Z,44.96
2023-02-28T08:46:33.499Z,47.05
2023-02-28T08:47:33.521Z,45.60
2023-02-28T08:48:33.492Z,46.08
2023-02-28T08:49:33.495Z,43.99
2023-02-28T08:50:33.557Z,44.31
2023-02-28T08:51:33.456Z,46.57
2023-02-28T08:52:33.454Z,45.44
2023-02-28T08:53:33.443Z,46.25
2023-02-28T08:54:33.446Z,45.28
2023-02-28T08:55:33.441Z,47.70
2023-02-28T08:56:33.421Z,44.79
2023-02-28T08:57:33.418Z,44.31
2023-02-28T08:58:33.445Z,45.44
2023-02-28T08:59:33.402Z,45.12
2023-02-28T09:00:33.408Z,46.57
2023-02-28T09:01:33.714Z,48.50
2023-02-28T09:02:33.394Z,45.60
2023-02-28T09:03:33.407Z,45.12
2023-02-28T09:04:33.368Z,46.41
2023-02-28T09:05:33.390Z,46.73
2023-02-28T09:06:33.348Z,47.05
2023-02-28T09:07:33.349Z,46.25
2023-02-28T09:08:33.332Z,47.05
2023-02-28T09:09:33.332Z,46.57
2023-02-28T09:10:33.352Z,46.25
2023-02-28T09:11:33.322Z,46.08
2023-02-28T09:12:33.303Z,47.86
2023-02-28T09:13:33.326Z,46.25
2023-02-28T09:14:33.301Z,47.37
2023-02-28T09:15:33.293Z,47.05
2023-02-28T09:16:33.793Z,44.15
2023-02-28T09:17:33.291Z,44.79
2023-02-28T09:18:33.290Z,46.41
2023-02-28T09:19:33.275Z,46.57
2023-02-28T09:20:33.265Z,46.25
2023-02-28T09:21:33.271Z,46.57
2023-02-28T09:22:33.253Z,47.21
2023-02-28T09:23:33.235Z,49.31
2023-02-28T09:24:33.986Z,48.82
2023-02-28T09:25:33.217Z,46.41
2023-02-28T09:26:39.049Z,46.89
2023-02-28T09:27:34.230Z,44.96
2023-02-28T09:28:33.202Z,45.92
2023-02-28T09:29:33.196Z,45.76
2023-02-28T09:30:33.215Z,46.41
2023-02-28T09:31:33.183Z,46.89
2023-02-28T09:32:33.206Z,48.34
2023-02-28T09:33:33.165Z,48.50
2023-02-28T09:34:33.258Z,48.50
2023-02-28T09:35:33.142Z,46.57
2023-02-28T09:36:43.609Z,47.05
2023-02-28T09:37:35.132Z,47.53
2023-02-28T09:38:33.134Z,45.28
2023-02-28T09:39:33.143Z,46.89
2023-02-28T09:40:33.126Z,46.41
2023-02-28T09:41:33.112Z,48.18
2023-02-28T09:42:33.111Z,45.92
2023-02-28T09:43:33.108Z,46.25
2023-02-28T09:44:33.115Z,47.21
2023-02-28T09:45:33.089Z,46.57
2023-02-28T09:46:33.442Z,46.41
2023-02-28T09:47:33.115Z,48.50
2023-02-28T09:48:33.090Z,46.57
2023-02-28T09:49:33.082Z,47.21
2023-02-28T09:50:33.056Z,46.57
2023-02-28T09:51:33.053Z,46.41
2023-02-28T09:52:33.043Z,45.12
2023-02-28T09:53:33.077Z,45.44
2023-02-28T09:54:33.048Z,44.96
2023-02-28T09:55:41.531Z,46.57
2023-02-28T09:56:35.005Z,47.70
2023-02-28T09:57:34.007Z,46.41
2023-02-28T09:58:32.997Z,46.25
2023-02-28T09:59:33.163Z,46.89
2023-02-28T10:00:32.985Z,48.34
2023-02-28T10:01:33.389Z,47.70
2023-02-28T10:02:32.971Z,47.21
2023-02-28T10:03:32.960Z,46.73
2023-02-28T10:04:32.979Z,46.89
2023-02-28T10:05:32.960Z,46.89
2023-02-28T10:06:32.964Z,46.73
2023-02-28T10:07:32.975Z,46.08
2023-02-28T10:08:32.935Z,48.50
2023-02-28T10:09:32.934Z,48.02
2023-02-28T10:10:32.916Z,46.57
2023-02-28T10:11:33.229Z,48.02
2023-02-28T10:12:32.890Z,48.66
2023-02-28T10:13:33.888Z,47.86
2023-02-28T10:14:32.882Z,48.18
2023-02-28T10:15:32.982Z,47.86
2023-02-28T10:16:32.876Z,46.73
2023-02-28T10:17:34.526Z,46.57
2023-02-28T10:18:32.870Z,45.44
2023-02-28T10:19:32.844Z,47.70
2023-02-28T10:20:32.833Z,48.02
2023-02-28T10:21:32.846Z,45.76
2023-02-28T10:22:32.831Z,49.63
2023-02-28T10:23:32.827Z,48.66
2023-02-28T10:24:32.806Z,49.15
2023-02-28T10:25:32.793Z,47.21
2023-02-28T10:26:32.804Z,47.86
2023-02-28T10:27:32.780Z,48.02
2023-02-28T10:28:32.781Z,48.98
2023-02-28T10:29:32.831Z,47.21
2023-02-28T10:30:32.767Z,47.70
2023-02-28T10:31:32.793Z,46.89
2023-02-28T10:32:32.756Z,48.18
2023-02-28T10:33:32.789Z,48.18
2023-02-28T10:34:32.736Z,48.18
2023-02-28T10:35:32.724Z,48.66
2023-02-28T10:36:35.201Z,48.50
2023-02-28T10:37:32.706Z,48.34
2023-02-28T10:38:32.719Z,48.02
2023-02-28T10:39:32.706Z,46.57
2023-02-28T10:40:32.697Z,48.98
2023-02-28T10:41:32.696Z,46.41
2023-02-28T10:42:32.694Z,47.37
2023-02-28T10:43:32.663Z,47.21
2023-02-28T10:44:32.679Z,46.89
2023-02-28T10:45:32.656Z,46.08
2023-02-28T10:46:33.012Z,46.89
2023-02-28T10:47:32.675Z,47.53
2023-02-28T10:48:32.653Z,47.37
2023-02-28T10:49:32.624Z,47.86
2023-02-28T10:50:32.620Z,48.82
2023-02-28T10:51:32.614Z,45.92
2023-02-28T10:52:32.608Z,46.89
2023-02-28T10:53:32.936Z,47.37
2023-02-28T10:54:33.599Z,46.41
2023-02-28T10:55:32.577Z,47.53
2023-02-28T10:56:34.122Z,46.89
2023-02-28T10:57:32.577Z,46.41
2023-02-28T10:58:32.666Z,46.57
2023-02-28T10:59:33.556Z,48.02
2023-02-28T11:00:32.556Z,46.89
2023-02-28T11:01:32.966Z,47.05
2023-02-28T11:02:35.944Z,47.37
2023-02-28T11:03:32.545Z,47.05
2023-02-28T11:04:32.538Z,48.18
2023-02-28T11:05:32.518Z,48.18
2023-02-28T11:06:32.807Z,48.34
2023-02-28T11:07:41.548Z,46.08
2023-02-28T11:08:34.509Z,45.28
2023-02-28T11:09:32.519Z,47.05
2023-02-28T11:10:32.480Z,48.50
2023-02-28T11:11:32.774Z,47.86
2023-02-28T11:12:34.023Z,48.34
2023-02-28T11:13:33.498Z,48.50
2023-02-28T11:14:32.480Z,45.76
2023-02-28T11:15:32.459Z,46.08
2023-02-28T11:16:32.440Z,47.86
2023-02-28T11:17:32.447Z,49.31
2023-02-28T11:18:32.437Z,45.76
2023-02-28T11:19:33.443Z,46.08
2023-02-28T11:20:32.448Z,47.21
2023-02-28T11:21:32.785Z,47.37
2023-02-28T11:22:32.418Z,47.21
2023-02-28T11:23:32.393Z,48.18
2023-02-28T11:24:32.396Z,48.66
2023-02-28T11:25:32.415Z,48.66
2023-02-28T11:26:32.387Z,48.50
2023-02-28T11:27:32.375Z,48.66
2023-02-28T11:28:32.368Z,48.82
2023-02-28T11:29:32.367Z,49.15
2023-02-28T11:30:32.379Z,47.05
2023-02-28T11:31:32.833Z,46.57
2023-02-28T11:32:32.467Z,46.25
2023-02-28T11:33:32.332Z,45.60
2023-02-28T11:34:32.321Z,46.57
2023-02-28T11:35:32.313Z,43.83
2023-02-28T11:36:32.332Z,45.12
2023-02-28T11:37:32.303Z,43.99
2023-02-28T11:38:32.294Z,43.83
2023-02-28T11:39:32.288Z,44.47
2023-02-28T11:40:32.289Z,45.60
2023-02-28T11:41:32.308Z,44.47
2023-02-28T11:42:32.288Z,49.15
2023-02-28T11:43:32.263Z,41.73
2023-02-28T11:44:32.257Z,44.63
2023-02-28T11:45:32.268Z,45.28
2023-02-28T11:46:32.266Z,46.73
2023-02-28T11:47:32.283Z,48.34
2023-02-28T11:48:32.237Z,45.28
2023-02-28T11:49:32.228Z,46.41
2023-02-28T11:50:32.228Z,44.79
2023-02-28T11:51:32.204Z,44.31
2023-02-28T11:52:32.221Z,42.54
2023-02-28T11:53:32.265Z,43.67
2023-02-28T11:54:32.186Z,43.18
2023-02-28T11:55:32.199Z,45.12
2023-02-28T11:56:32.188Z,46.25
2023-02-28T11:57:32.194Z,42.54
2023-02-28T11:58:32.172Z,43.83
2023-02-28T11:59:32.166Z,44.15
2023-02-28T12:00:32.157Z,44.31
2023-02-28T12:01:32.387Z,44.79
2023-02-28T12:02:32.198Z,44.31
2023-02-28T12:03:32.213Z,46.57
2023-02-28T12:04:32.167Z,44.79
2023-02-28T12:05:32.138Z,45.76
2023-02-28T12:06:32.120Z,45.28
2023-02-28T12:07:32.125Z,45.76
2023-02-28T12:08:32.123Z,44.63
2023-02-28T12:09:32.110Z,46.08
2023-02-28T12:10:32.117Z,46.41
2023-02-28T12:11:32.438Z,48.34
2023-02-28T12:12:32.086Z,50.92
2023-02-28T12:13:32.078Z,49.31
2023-02-28T12:14:32.096Z,48.34
2023-02-28T12:15:32.082Z,48.82
2023-02-28T12:16:32.120Z,49.63
2023-02-28T12:17:32.052Z,46.08
2023-02-28T12:18:32.049Z,47.37
2023-02-28T12:19:32.066Z,45.44
2023-02-28T12:20:32.037Z,45.44
2023-02-28T12:21:32.101Z,46.41
2023-02-28T12:22:32.034Z,46.73
2023-02-28T12:23:32.016Z,46.41
2023-02-28T12:24:31.998Z,45.60
2023-02-28T12:25:32.021Z,46.41
2023-02-28T12:26:32.006Z,47.86
2023-02-28T12:27:32.377Z,47.05
2023-02-28T12:28:31.984Z,46.08
2023-02-28T12:29:31.986Z,47.86
2023-02-28T12:30:31.980Z,46.25
2023-02-28T12:31:32.542Z,46.41
2023-02-28T12:32:31.998Z,46.57
2023-02-28T12:33:31.971Z,45.44
2023-02-28T12:34:31.939Z,44.47
2023-02-28T12:35:31.933Z,44.63
2023-02-28T12:36:31.952Z,47.70
2023-02-28T12:37:31.999Z,45.28
2023-02-28T12:38:31.911Z,47.86
2023-02-28T12:39:34.442Z,46.25
2023-02-28T12:40:33.940Z,45.76
2023-02-28T12:41:32.000Z,45.60
2023-02-28T12:42:31.891Z,45.44
2023-02-28T12:43:31.912Z,46.08
2023-02-28T12:44:31.886Z,44.31
2023-02-28T12:45:31.875Z,44.47
2023-02-28T12:46:31.955Z,42.54
2023-02-28T12:47:31.856Z,43.02
2023-02-28T12:48:31.840Z,43.34
2023-02-28T12:49:31.844Z,46.08
2023-02-28T12:50:31.828Z,44.96
2023-02-28T12:51:32.110Z,45.12
2023-02-28T12:52:31.815Z,45.12